Time;durP1;ratioP1;P1;durP2;ratioP2;P2;SDS_P1;SDS_P2;PMS_P1;PMS_P2;Temp;Humidity;BMP_temperature;BMP_pressure;BME280_temperature;BME280_humidity;BME280_pressure;Samples;Min_cycle;Max_cycle;Signal;HPM_P1;HPM_P2
2023/03/07 00:01:24;;;;;;;10.50;7.05;;;-0.10;1.00;;;;;;5066100;28;20313;-79
2023/03/07 00:03:51;;;;;;;9.90;8.05;;;-0.10;1.00;;;;;;5066238;28;20265;-78
2023/03/07 00:06:17;;;;;;;13.52;7.70;;;-0.10;1.00;;;;;;5063868;28;20624;-78
2023/03/07 00:08:44;;;;;;;12.75;7.30;;;-0.10;1.00;;;;;;5061381;28;20304;-78
2023/03/07 00:11:16;;;;;;;13.82;8.02;;;-0.10;1.00;;;;;;5059003;28;20639;-79
2023/03/07 00:13:48;;;;;;;16.70;8.60;;;-0.30;1.00;;;;;;5057770;28;20198;-80
2023/03/07 00:16:17;;;;;;;11.63;7.97;;;-0.20;1.00;;;;;;5057886;28;20207;-79
2023/03/07 00:18:45;;;;;;;11.93;7.28;;;-0.30;1.00;;;;;;5065294;28;20217;-78
2023/03/07 00:21:15;;;;;;;13.43;7.97;;;-0.40;1.00;;;;;;5064817;28;20792;-79
2023/03/07 00:23:43;;;;;;;11.60;8.30;;;-0.30;1.00;;;;;;5068266;28;20203;-79
2023/03/07 00:26:13;;;;;;;13.35;7.60;;;-0.30;1.00;;;;;;5065591;28;20717;-79
2023/03/07 00:28:40;;;;;;;13.05;7.20;;;-0.40;1.00;;;;;;5063733;28;20203;-79
2023/03/07 00:31:09;;;;;;;13.02;9.15;;;-0.40;1.00;;;;;;5062572;28;20223;-78
2023/03/07 00:33:36;;;;;;;14.88;8.30;;;-0.30;1.00;;;;;;5061546;28;20203;-78
2023/03/07 00:36:06;;;;;;;14.20;8.20;;;-0.30;1.00;;;;;;5060132;28;20230;-79
2023/03/07 00:38:34;;;;;;;11.38;8.20;;;-0.40;1.00;;;;;;5058919;28;20188;-79
2023/03/07 00:41:07;;;;;;;16.00;8.73;;;-0.40;1.00;;;;;;5059234;28;20250;-79
2023/03/07 00:43:42;;;;;;;16.20;8.93;;;-0.40;1.00;;;;;;5057102;28;20195;-79
2023/03/07 00:46:14;;;;;;;12.50;8.13;;;-0.40;1.00;;;;;;5055919;28;20216;-79
2023/03/07 00:48:46;;;;;;;13.10;9.30;;;-0.20;1.00;;;;;;5055604;28;20187;-79
2023/03/07 00:51:24;;;;;;;15.43;9.30;;;-0.40;1.00;;;;;;5056178;28;20231;-80
2023/03/07 00:53:56;;;;;;;15.75;10.07;;;-0.30;1.00;;;;;;5056704;28;20210;-79
2023/03/07 00:56:30;;;;;;;14.77;9.13;;;-0.40;1.00;;;;;;5055027;28;20211;-79
2023/03/07 00:58:57;;;;;;;19.10;10.05;;;-0.40;1.00;;;;;;5057376;28;20668;-79
2023/03/07 01:01:25;;;;;;;13.73;9.23;;;-0.40;1.00;;;;;;5057164;28;20722;-79
2023/03/07 01:03:53;;;;;;;18.40;10.50;;;-0.40;1.00;;;;;;5057436;28;20209;-79
2023/03/07 01:06:23;;;;;;;13.60;8.50;;;-0.30;1.00;;;;;;5057801;28;20290;-79
2023/03/07 01:08:50;;;;;;;16.20;9.68;;;-0.40;1.00;;;;;;5061256;28;20293;-79
2023/03/07 01:11:22;;;;;;;15.48;10.00;;;-0.40;1.00;;;;;;5068314;28;20298;-79
2023/03/07 01:13:49;;;;;;;13.20;8.52;;;-0.40;1.00;;;;;;5067710;28;20184;-79
2023/03/07 01:16:18;;;;;;;17.45;10.05;;;-0.50;1.00;;;;;;5061134;28;20290;-78
2023/03/07 01:18:48;;;;;;;14.30;9.38;;;-0.40;1.00;;;;;;5062966;28;20239;-78
2023/03/07 01:21:18;;;;;;;18.92;11.30;;;-0.40;1.00;;;;;;5060091;28;20235;-79
2023/03/07 01:23:46;;;;;;;21.10;11.80;;;-0.50;1.00;;;;;;5064252;28;20273;-78
2023/03/07 01:26:14;;;;;;;18.88;10.55;;;-0.50;1.00;;;;;;5077714;28;20194;-78
2023/03/07 01:28:48;;;;;;;25.88;13.55;;;-0.50;1.00;;;;;;5077440;28;20182;-78
2023/03/07 01:31:14;;;;;;;30.35;12.85;;;-0.50;1.00;;;;;;5069558;28;20294;-78
2023/03/07 01:33:42;;;;;;;18.63;11.80;;;-0.50;1.00;;;;;;5054805;28;20286;-79
2023/03/07 01:36:18;;;;;;;21.65;12.40;;;-0.50;1.00;;;;;;5054786;28;20262;-80
2023/03/07 01:38:46;;;;;;;26.25;12.60;;;-0.40;1.00;;;;;;5055900;28;20260;-79
2023/03/07 01:41:13;;;;;;;27.77;11.73;;;-0.40;1.00;;;;;;5056538;28;20749;-79
2023/03/07 01:43:45;;;;;;;21.25;13.15;;;-0.40;1.00;;;;;;5057090;28;20203;-79
2023/03/07 01:46:32;;;;;;;22.42;12.18;;;-0.40;1.00;;;;;;5055877;28;20199;-79
2023/03/07 01:49:08;;;;;;;20.58;11.95;;;-0.30;1.00;;;;;;5068091;28;20229;-79
2023/03/07 01:51:42;;;;;;;19.10;12.20;;;-0.30;1.00;;;;;;5068611;28;20249;-79
2023/03/07 01:54:19;;;;;;;23.45;13.25;;;-0.30;1.00;;;;;;5056134;28;20244;-79
2023/03/07 01:56:56;;;;;;;31.75;14.50;;;-0.20;1.00;;;;;;5056929;28;20261;-79
2023/03/07 01:59:32;;;;;;;29.20;14.20;;;-0.30;22.00;;;;;;5066302;28;20187;-79
2023/03/07 02:02:07;;;;;;;31.25;14.45;;;-0.20;1.00;;;;;;5069332;28;20207;-80
2023/03/07 02:04:45;;;;;;;26.83;13.23;;;0.00;1.00;;;;;;5069444;28;20191;-80
2023/03/07 02:07:17;;;;;;;26.40;14.60;;;0.20;54.10;;;;;;5070269;28;20198;-80
2023/03/07 02:09:53;;;;;;;25.52;13.80;;;-0.10;1.00;;;;;;5071061;28;20243;-80
2023/03/07 02:12:24;;;;;;;27.85;15.05;;;0.10;1.00;;;;;;5069247;28;20187;-80
2023/03/07 02:14:56;;;;;;;31.95;15.05;;;0.00;1.00;;;;;;5062601;28;20231;-80
2023/03/07 02:17:29;;;;;;;31.50;15.20;;;0.10;1.00;;;;;;5060908;28;20252;-80
2023/03/07 02:20:22;;;;;;;32.28;18.08;;;0.10;1.00;;;;;;5060468;28;20675;-80
2023/03/07 02:22:56;;;;;;;36.03;17.90;;;0.10;1.00;;;;;;5057853;28;20333;-79
2023/03/07 02:25:35;;;;;;;31.83;17.13;;;0.20;1.00;;;;;;5059514;28;20206;-79
2023/03/07 02:28:14;;;;;;;39.20;19.13;;;0.30;1.00;;;;;;5059340;28;20188;-79
2023/03/07 02:30:53;;;;;;;35.45;17.42;;;0.60;91.80;;;;;;5083805;22;20269;-81
2023/03/07 02:33:23;;;;;;;38.65;20.75;;;0.40;1.00;;;;;;5046231;28;20215;-83
2023/03/07 02:35:53;;;;;;;34.40;17.52;;;0.40;1.00;;;;;;5047713;28;20786;-83
2023/03/07 02:38:20;;;;;;;36.63;17.85;;;0.50;1.00;;;;;;5047157;28;20272;-82
2023/03/07 02:40:47;;;;;;;36.95;19.77;;;0.20;72.50;;;;;;5047887;28;20214;-83
2023/03/07 02:43:16;;;;;;;32.88;17.80;;;0.40;1.00;;;;;;5048522;28;20263;-83
2023/03/07 02:45:43;;;;;;;40.63;20.88;;;0.70;74.90;;;;;;5048003;28;20200;-83
2023/03/07 02:48:10;;;;;;;34.85;19.40;;;0.50;1.00;;;;;;5049068;28;20243;-82
2023/03/07 02:50:40;;;;;;;41.08;21.80;;;0.20;1.00;;;;;;5047827;28;20735;-83
2023/03/07 02:53:07;;;;;;;37.47;19.55;;;0.50;1.00;;;;;;5048184;28;20226;-82
2023/03/07 02:55:33;;;;;;;30.90;17.88;;;0.50;1.00;;;;;;5047939;28;20216;-83
2023/03/07 02:58:01;;;;;;;37.83;20.30;;;0.50;1.00;;;;;;5051350;28;20238;-80
2023/03/07 03:00:29;;;;;;;38.00;18.67;;;0.60;1.00;;;;;;5057793;28;20207;-80
2023/03/07 03:02:56;;;;;;;45.17;19.83;;;0.50;1.00;;;;;;5053968;28;20781;-79
2023/03/07 03:05:22;;;;;;;34.05;18.77;;;0.50;58.80;;;;;;5054707;28;20234;-81
2023/03/07 03:07:49;;;;;;;38.10;19.02;;;0.60;1.00;;;;;;5055740;28;20214;-82
2023/03/07 03:10:17;;;;;;;33.50;18.45;;;0.60;1.00;;;;;;5057517;28;20241;-83
2023/03/07 03:12:44;;;;;;;35.55;18.50;;;0.60;1.00;;;;;;5051008;28;20656;-82
2023/03/07 03:15:11;;;;;;;33.08;19.40;;;0.60;1.00;;;;;;5050893;28;20291;-83
2023/03/07 03:17:40;;;;;;;36.97;18.55;;;0.60;1.00;;;;;;5051105;28;20262;-83
2023/03/07 03:20:10;;;;;;;38.35;19.35;;;0.60;1.00;;;;;;5049977;28;20200;-83
2023/03/07 03:22:37;;;;;;;32.35;18.52;;;0.70;1.00;;;;;;5051996;28;20224;-82
2023/03/07 03:25:06;;;;;;;35.35;20.58;;;0.70;1.00;;;;;;5058445;28;20273;-82
2023/03/07 03:27:34;;;;;;;37.30;19.55;;;0.70;1.00;;;;;;5057590;28;20259;-82
2023/03/07 03:30:00;;;;;;;38.53;20.42;;;0.70;1.00;;;;;;5052214;28;20274;-82
2023/03/07 03:32:27;;;;;;;42.90;21.98;;;0.70;1.00;;;;;;5048759;28;20295;-82
2023/03/07 03:34:55;;;;;;;37.45;20.40;;;0.60;1.00;;;;;;5048670;28;20214;-81
2023/03/07 03:37:22;;;;;;;39.83;20.48;;;0.70;1.00;;;;;;5049495;28;20220;-83
2023/03/07 03:39:49;;;;;;;32.38;18.83;;;0.70;1.00;;;;;;5048598;28;20754;-82
2023/03/07 03:42:16;;;;;;;38.35;20.67;;;0.70;1.00;;;;;;5047391;28;20251;-82
2023/03/07 03:44:43;;;;;;;38.05;18.80;;;0.70;1.00;;;;;;5046148;28;20205;-80
2023/03/07 03:47:09;;;;;;;39.72;21.10;;;0.70;1.00;;;;;;5047243;28;20665;-81
2023/03/07 03:49:36;;;;;;;39.60;19.92;;;0.70;1.00;;;;;;5045514;28;20287;-81
2023/03/07 03:52:05;;;;;;;32.08;18.50;;;0.80;1.00;;;;;;5040387;28;20318;-80
2023/03/07 03:54:32;;;;;;;38.03;19.17;;;1.10;1.00;;;;;;5039589;28;20239;-83
2023/03/07 03:57:01;;;;;;;43.17;19.90;;;0.80;1.00;;;;;;5041077;28;20226;-81
2023/03/07 03:59:29;;;;;;;37.00;20.63;;;0.80;1.00;;;;;;5040794;28;20232;-81
2023/03/07 04:01:55;;;;;;;32.45;19.50;;;0.80;1.00;;;;;;5041798;28;20637;-82
2023/03/07 04:04:23;;;;;;;35.78;19.73;;;0.80;1.00;;;;;;5042748;28;20246;-82
2023/03/07 04:06:49;;;;;;;35.05;18.92;;;0.90;1.00;;;;;;5043953;28;20270;-82
2023/03/07 04:09:18;;;;;;;41.97;21.13;;;0.90;1.00;;;;;;5044774;28;20212;-81
2023/03/07 04:11:44;;;;;;;37.28;21.50;;;0.90;1.00;;;;;;5043242;28;20303;-82
2023/03/07 04:14:11;;;;;;;37.47;19.17;;;0.90;1.00;;;;;;5044641;28;20206;-82
2023/03/07 04:16:38;;;;;;;42.95;19.90;;;1.00;1.00;;;;;;5046298;28;20310;-83
2023/03/07 04:19:05;;;;;;;33.83;17.63;;;1.00;1.00;;;;;;5055339;28;20184;-82
2023/03/07 04:21:32;;;;;;;34.03;18.45;;;1.00;1.00;;;;;;5060138;28;20208;-82
2023/03/07 04:23:58;;;;;;;34.90;18.85;;;1.00;1.00;;;;;;5056479;28;20227;-84
2023/03/07 04:26:27;;;;;;;38.53;18.52;;;1.10;1.00;;;;;;5051332;28;20244;-83
2023/03/07 04:28:54;;;;;;;34.00;17.42;;;0.90;1.00;;;;;;5049827;28;20191;-83
2023/03/07 04:31:22;;;;;;;30.88;18.95;;;1.10;1.00;;;;;;5049751;28;20235;-84
2023/03/07 04:33:50;;;;;;;31.77;19.27;;;1.20;1.00;;;;;;5048204;28;20243;-82
2023/03/07 04:36:18;;;;;;;36.25;17.63;;;1.20;1.00;;;;;;5047188;28;20223;-81
2023/03/07 04:38:45;;;;;;;31.90;17.70;;;1.20;1.00;;;;;;5046023;28;20208;-82
2023/03/07 04:41:14;;;;;;;32.60;18.58;;;1.20;1.00;;;;;;5045814;28;20762;-83
2023/03/07 04:43:42;;;;;;;39.05;19.80;;;1.20;1.00;;;;;;5046861;28;20219;-84
2023/03/07 04:46:10;;;;;;;29.85;16.33;;;1.70;1.00;;;;;;5045174;28;20199;-83
2023/03/07 04:48:37;;;;;;;30.75;19.35;;;1.40;1.00;;;;;;5047048;28;20290;-83
2023/03/07 04:51:04;;;;;;;32.83;16.40;;;1.60;1.00;;;;;;5044498;28;20226;-81
2023/03/07 04:53:31;;;;;;;24.92;16.95;;;1.30;1.00;;;;;;5040981;28;20239;-82
2023/03/07 04:55:59;;;;;;;35.73;19.40;;;1.30;1.00;;;;;;5041890;28;20414;-82
2023/03/07 04:58:26;;;;;;;28.50;17.40;;;1.10;1.00;;;;;;5043577;28;20470;-83
2023/03/07 05:00:56;;;;;;;37.17;20.80;;;1.10;1.00;;;;;;5044531;28;20215;-83
2023/03/07 05:03:25;;;;;;;36.70;18.83;;;1.10;1.00;;;;;;5045791;28;20188;-83
2023/03/07 05:05:52;;;;;;;31.00;18.75;;;1.00;1.00;;;;;;5045392;28;20723;-83
2023/03/07 05:08:19;;;;;;;33.88;18.13;;;0.90;1.00;;;;;;5056767;28;20211;-83
2023/03/07 05:10:46;;;;;;;36.00;19.80;;;0.60;25.80;;;;;;5057098;28;20203;-84
2023/03/07 05:13:13;;;;;;;40.47;22.88;;;0.90;1.00;;;;;;5047843;28;20287;-84
2023/03/07 05:15:40;;;;;;;34.05;18.40;;;0.80;1.00;;;;;;5047189;28;20585;-84
2023/03/07 05:18:08;;;;;;;33.67;18.83;;;0.80;1.00;;;;;;5046931;28;20227;-83
2023/03/07 05:20:35;;;;;;;36.42;19.55;;;0.80;1.00;;;;;;5046752;28;20214;-83
2023/03/07 05:23:02;;;;;;;37.58;21.27;;;0.80;1.00;;;;;;5046119;28;20207;-84
2023/03/07 05:25:29;;;;;;;41.25;20.13;;;0.80;1.00;;;;;;5046757;28;20200;-84
2023/03/07 05:27:56;;;;;;;38.45;20.05;;;0.80;1.00;;;;;;5046486;28;20208;-83
2023/03/07 05:30:23;;;;;;;38.10;19.73;;;1.10;99.90;;;;;;5047053;28;20206;-84
2023/03/07 05:32:50;;;;;;;36.05;18.40;;;0.80;3.90;;;;;;5045434;28;20727;-82
2023/03/07 05:35:19;;;;;;;39.10;20.40;;;0.80;9.80;;;;;;5043138;28;20212;-83
2023/03/07 05:37:47;;;;;;;38.60;21.60;;;1.00;96.30;;;;;;5045061;28;20228;-82
2023/03/07 05:40:14;;;;;;;42.13;22.77;;;0.80;18.80;;;;;;5042968;28;20223;-83
2023/03/07 05:42:41;;;;;;;41.17;22.30;;;0.80;24.90;;;;;;5043219;28;20262;-82
2023/03/07 05:45:09;;;;;;;39.88;22.75;;;0.80;30.10;;;;;;5048139;28;20206;-83
2023/03/07 05:47:37;;;;;;;38.47;20.33;;;0.90;36.80;;;;;;5056011;28;20200;-84
2023/03/07 05:50:05;;;;;;;41.28;20.52;;;0.80;44.70;;;;;;5048353;28;20204;-84
2023/03/07 05:52:33;;;;;;;42.80;21.17;;;0.90;51.40;;;;;;5045837;28;20292;-84
2023/03/07 05:55:00;;;;;;;41.53;21.05;;;0.90;59.30;;;;;;5046185;28;20267;-84
2023/03/07 05:57:27;;;;;;;41.25;23.27;;;0.90;70.20;;;;;;5046651;28;20346;-84
2023/03/07 05:59:54;;;;;;;36.83;20.85;;;0.90;79.90;;;;;;5045747;28;20262;-83
2023/03/07 06:02:20;;;;;;;41.05;19.38;;;0.90;86.80;;;;;;5046604;28;20599;-83
2023/03/07 06:04:48;;;;;;;44.60;22.48;;;1.00;91.50;;;;;;5045208;28;20448;-83
2023/03/07 06:07:15;;;;;;;43.38;23.10;;;1.00;94.30;;;;;;5047095;28;20258;-83
2023/03/07 06:09:43;;;;;;;43.85;23.55;;;1.00;97.70;;;;;;5046203;28;20242;-83
2023/03/07 06:12:10;;;;;;;40.30;23.25;;;1.00;99.90;;;;;;5045980;28;20584;-83
2023/03/07 06:14:37;;;;;;;36.72;19.20;;;1.10;99.90;;;;;;5048224;28;20712;-83
2023/03/07 06:17:05;;;;;;;39.33;20.35;;;1.10;99.90;;;;;;5050181;28;20281;-83
2023/03/07 06:19:32;;;;;;;38.55;21.35;;;1.10;99.90;;;;;;5050374;28;20210;-82
2023/03/07 06:21:59;;;;;;;45.92;21.02;;;1.10;99.90;;;;;;5048324;28;20254;-84
2023/03/07 06:24:26;;;;;;;42.10;21.08;;;1.10;99.90;;;;;;5049770;28;20284;-83
2023/03/07 06:26:54;;;;;;;35.83;20.70;;;1.20;99.90;;;;;;5046101;28;20203;-84
2023/03/07 06:29:21;;;;;;;46.85;23.50;;;1.20;99.90;;;;;;5046403;28;20558;-83
2023/03/07 06:31:48;;;;;;;37.83;19.40;;;1.30;99.90;;;;;;5045404;28;20243;-82
2023/03/07 06:34:15;;;;;;;44.42;20.77;;;1.30;99.90;;;;;;5045418;28;20298;-82
2023/03/07 06:36:42;;;;;;;34.88;20.88;;;1.30;99.90;;;;;;5045561;28;20296;-82
2023/03/07 06:39:08;;;;;;;36.33;18.92;;;1.40;99.90;;;;;;5044627;28;20211;-82
2023/03/07 06:41:35;;;;;;;37.25;20.17;;;1.40;99.90;;;;;;5045558;28;20251;-83
2023/03/07 06:44:03;;;;;;;42.70;20.80;;;1.40;99.90;;;;;;5043559;28;20291;-82
2023/03/07 06:46:31;;;;;;;35.25;21.40;;;;;;;;;;5045405;28;20208;-83
2023/03/07 06:48:58;;;;;;;40.75;22.00;;;1.30;99.90;;;;;;5045511;28;20235;-82
2023/03/07 06:51:24;;;;;;;38.05;21.10;;;1.60;99.90;;;;;;5044441;28;20292;-82
2023/03/07 06:53:51;;;;;;;39.53;20.75;;;1.40;96.10;;;;;;5044831;28;20617;-82
2023/03/07 06:56:18;;;;;;;37.67;19.10;;;1.50;99.90;;;;;;5045444;28;20228;-81
2023/03/07 06:58:45;;;;;;;40.67;21.13;;;1.30;99.90;;;;;;5048717;28;20235;-83
2023/03/07 07:01:17;;;;;;;35.47;19.65;;;2.10;99.90;;;;;;5043040;28;20335;-82
2023/03/07 07:03:44;;;;;;;32.15;20.17;;;1.50;99.90;;;;;;5041210;28;20538;-82
2023/03/07 07:06:11;;;;;;;33.35;20.05;;;1.60;85.40;;;;;;5044715;28;20204;-80
2023/03/07 07:08:38;;;;;;;37.60;21.55;;;1.60;83.70;;;;;;5055823;28;20196;-82
2023/03/07 07:11:06;;;;;;;41.35;21.27;;;1.60;67.90;;;;;;5059244;28;20272;-81
2023/03/07 07:13:32;;;;;;;33.25;19.70;;;1.60;61.00;;;;;;5057265;28;20204;-82
2023/03/07 07:16:05;;;;;;;33.28;19.77;;;1.70;62.90;;;;;;5058573;28;20268;-82
2023/03/07 07:18:33;;;;;;;31.70;19.23;;;1.70;55.50;;;;;;5057794;28;20233;-83
2023/03/07 07:21:00;;;;;;;38.85;20.10;;;1.70;46.30;;;;;;5053222;28;20227;-84
2023/03/07 07:23:27;;;;;;;34.15;19.30;;;2.60;40.70;;;;;;5053809;28;20264;-83
2023/03/07 07:25:54;;;;;;;32.30;19.20;;;1.70;27.10;;;;;;5054919;28;20191;-82
2023/03/07 07:28:21;;;;;;;32.00;17.33;;;1.80;99.90;;;;;;5057335;28;20219;-84
2023/03/07 07:30:48;;;;;;;34.20;18.42;;;1.90;99.90;;;;;;5056639;28;20268;-82
2023/03/07 07:33:15;;;;;;;30.70;17.77;;;1.90;6.30;;;;;;5053290;28;20217;-83
2023/03/07 07:35:44;;;;;;;33.45;16.92;;;1.90;1.00;;;;;;5050442;28;20203;-84
2023/03/07 07:38:11;;;;;;;30.50;17.83;;;2.00;1.00;;;;;;5050652;28;20231;-83
2023/03/07 07:40:39;;;;;;;28.60;16.60;;;2.00;25.70;;;;;;5046233;28;20290;-82
2023/03/07 07:43:06;;;;;;;30.58;16.10;;;2.10;1.00;;;;;;5045943;28;20218;-82
2023/03/07 07:45:33;;;;;;;31.17;19.65;;;2.10;1.00;;;;;;5046854;28;20243;-83
2023/03/07 07:48:00;;;;;;;27.58;15.68;;;2.10;1.00;;;;;;5045454;28;20207;-84
2023/03/07 07:50:27;;;;;;;35.63;16.40;;;2.20;1.00;;;;;;5047263;28;20675;-83
2023/03/07 07:52:55;;;;;;;32.97;15.55;;;2.20;1.00;;;;;;5046064;28;20797;-82
2023/03/07 07:55:23;;;;;;;33.60;16.95;;;2.30;1.00;;;;;;5046000;28;20292;-81
2023/03/07 07:57:51;;;;;;;27.25;16.15;;;2.30;1.00;;;;;;5045315;28;20258;-82
2023/03/07 08:00:20;;;;;;;27.45;15.32;;;2.30;1.00;;;;;;5046354;28;20224;-82
2023/03/07 08:02:49;;;;;;;27.17;15.50;;;2.30;1.00;;;;;;5048644;28;20228;-84
2023/03/07 08:05:17;;;;;;;26.20;15.38;;;2.30;1.00;;;;;;5053732;28;20204;-82
2023/03/07 08:07:44;;;;;;;38.55;18.27;;;2.30;1.00;;;;;;5050887;28;20201;-83
2023/03/07 08:10:15;;;;;;;26.77;14.90;;;2.30;1.00;;;;;;5054476;28;20192;-83
2023/03/07 08:12:42;;;;;;;25.08;16.75;;;2.30;1.00;;;;;;5056713;28;20250;-84
2023/03/07 08:15:10;;;;;;;22.95;15.57;;;2.30;3.10;;;;;;5049577;28;20231;-83
2023/03/07 08:17:37;;;;;;;30.63;15.85;;;2.30;1.00;;;;;;5043333;28;20307;-82
2023/03/07 08:20:08;;;;;;;30.05;16.08;;;2.40;1.00;;;;;;5044424;28;20578;-83
2023/03/07 08:22:35;;;;;;;26.95;16.05;;;2.40;1.00;;;;;;5043646;28;20231;-82
2023/03/07 08:25:03;;;;;;;28.52;16.13;;;2.40;1.00;;;;;;5047839;28;20231;-82
2023/03/07 08:27:32;;;;;;;26.73;16.15;;;2.40;1.00;;;;;;5042956;28;20204;-83
2023/03/07 08:29:59;;;;;;;25.13;14.85;;;2.40;1.00;;;;;;5042324;28;20292;-83
2023/03/07 08:32:26;;;;;;;31.98;16.02;;;2.50;1.00;;;;;;5032686;22;1094518;-79
2023/03/07 08:34:53;;;;;;;28.52;14.73;;;2.30;1.00;;;;;;5068093;28;20218;-79
2023/03/07 08:37:20;;;;;;;25.45;14.82;;;2.50;1.00;;;;;;5069621;28;20290;-80
2023/03/07 08:39:47;;;;;;;24.65;13.57;;;2.60;1.00;;;;;;5069994;28;20199;-80
2023/03/07 08:42:14;;;;;;;24.10;16.75;;;2.60;1.00;;;;;;5060456;28;20306;-80
2023/03/07 08:44:42;;;;;;;27.00;14.35;;;2.70;1.00;;;;;;5062247;28;20657;-81
2023/03/07 08:47:10;;;;;;;24.33;13.90;;;2.70;1.00;;;;;;5060455;28;20199;-80
2023/03/07 08:49:37;;;;;;;20.75;13.68;;;2.80;1.00;;;;;;5061748;28;20211;-80
2023/03/07 08:52:04;;;;;;;21.58;13.23;;;2.90;1.00;;;;;;5059535;28;20228;-80
2023/03/07 08:54:32;;;;;;;25.35;14.23;;;3.00;1.00;;;;;;5064334;28;20267;-80
2023/03/07 08:56:59;;;;;;;24.17;13.30;;;3.00;1.00;;;;;;5060504;28;20208;-81
2023/03/07 08:59:26;;;;;;;22.00;12.10;;;3.20;1.00;;;;;;5067971;28;20230;-80
2023/03/07 09:01:55;;;;;;;20.15;12.82;;;3.30;1.00;;;;;;5074342;28;20316;-81
2023/03/07 09:04:22;;;;;;;22.15;12.40;;;3.30;1.00;;;;;;5074779;28;20223;-81
2023/03/07 09:06:49;;;;;;;19.75;11.85;;;3.40;1.00;;;;;;5067253;28;20263;-81
2023/03/07 09:09:16;;;;;;;18.67;11.10;;;3.40;1.00;;;;;;5065278;28;20276;-81
2023/03/07 09:11:42;;;;;;;20.70;12.73;;;3.50;1.00;;;;;;5071621;28;20226;-80
2023/03/07 09:14:10;;;;;;;17.42;11.32;;;;;;;;;;5075021;28;20238;-80
2023/03/07 09:16:36;;;;;;;18.98;10.90;;;3.60;1.00;;;;;;5073767;28;20271;-80
2023/03/07 09:19:05;;;;;;;12.60;9.45;;;3.60;1.00;;;;;;5068762;28;20789;-80
2023/03/07 09:21:32;;;;;;;14.32;9.77;;;3.60;1.00;;;;;;5068950;28;20228;-79
2023/03/07 09:23:59;;;;;;;14.30;10.10;;;3.60;99.90;;;;;;5074936;28;20210;-80
2023/03/07 09:26:26;;;;;;;15.93;9.30;;;3.70;99.90;;;;;;5075978;28;20203;-80
2023/03/07 09:28:52;;;;;;;13.57;9.68;;;3.70;99.90;;;;;;5078840;28;20235;-80
2023/03/07 09:31:19;;;;;;;14.60;10.18;;;3.80;99.90;;;;;;5076802;28;20389;-80
2023/03/07 09:33:46;;;;;;;17.67;10.63;;;3.90;99.90;;;;;;5074792;28;20211;-80
2023/03/07 09:36:16;;;;;;;14.80;10.32;;;4.00;99.90;;;;;;5076341;28;20246;-80
2023/03/07 09:38:43;;;;;;;14.85;10.02;;;4.10;99.90;;;;;;5069012;28;20303;-80
2023/03/07 09:41:30;;;;;;;19.17;10.90;;;4.40;99.90;;;;;;5067337;28;20290;-80
2023/03/07 09:44:02;;;;;;;12.52;9.27;;;4.20;99.90;;;;;;5065478;28;20247;-81
2023/03/07 09:46:41;;;;;;;14.95;9.00;;;4.30;99.90;;;;;;5061626;28;20188;-81
2023/03/07 09:49:19;;;;;;;16.33;9.40;;;4.50;99.90;;;;;;5060341;28;20287;-81
2023/03/07 09:51:51;;;;;;;13.95;8.13;;;4.50;99.90;;;;;;5060496;28;20231;-81
2023/03/07 09:54:21;;;;;;;13.55;8.98;;;4.60;99.90;;;;;;5061169;28;20215;-81
2023/03/07 09:56:52;;;;;;;15.50;9.90;;;4.70;99.90;;;;;;5059196;28;20294;-81
2023/03/07 09:59:34;;;;;;;9.88;7.55;;;4.60;78.20;;;;;;5058472;28;20302;-81
2023/03/07 10:02:12;;;;;;;11.85;9.07;;;4.70;99.90;;;;;;5060042;28;20651;-81
2023/03/07 10:04:48;;;;;;;12.48;9.20;;;4.70;99.90;;;;;;5061534;28;20283;-81
2023/03/07 10:07:19;;;;;;;12.23;8.07;;;4.70;99.90;;;;;;5059480;28;20276;-80
2023/03/07 10:09:46;;;;;;;16.45;7.97;;;4.60;58.70;;;;;;5060274;28;20234;-81
2023/03/07 10:12:31;;;;;;;10.95;8.68;;;4.60;6.80;;;;;;5063748;28;20292;-80
2023/03/07 10:15:15;;;;;;;9.15;7.85;;;4.60;36.10;;;;;;5063309;28;20215;-81
2023/03/07 10:17:58;;;;;;;11.02;8.32;;;4.60;83.00;;;;;;5078191;28;20208;-80
2023/03/07 10:20:36;;;;;;;10.40;7.20;;;4.60;30.50;;;;;;5077951;28;20208;-80
2023/03/07 10:23:23;;;;;;;7.72;6.50;;;4.60;24.90;;;;;;5064561;28;20312;-82
2023/03/07 10:25:56;;;;;;;9.07;7.35;;;4.60;91.90;;;;;;5059064;28;20188;-80
2023/03/07 10:28:26;;;;;;;9.90;7.10;;;4.40;99.90;;;;;;5059018;28;20721;-81
2023/03/07 10:30:59;;;;;;;11.57;7.95;;;4.50;99.90;;;;;;5059168;28;20260;-80
2023/03/07 10:33:30;;;;;;;10.93;7.90;;;4.50;99.90;;;;;;5063906;28;20218;-80
2023/03/07 10:36:06;;;;;;;7.85;6.15;;;4.50;99.90;;;;;;5063885;28;20267;-80
2023/03/07 10:38:41;;;;;;;12.50;7.68;;;4.40;99.90;;;;;;5064357;28;20207;-81
2023/03/07 10:41:14;;;;;;;7.60;6.60;;;4.50;99.90;;;;;;5064033;28;20188;-81
2023/03/07 10:43:46;;;;;;;10.68;7.85;;;4.50;99.90;;;;;;5068481;28;20212;-81
2023/03/07 10:46:15;;;;;;;10.90;6.95;;;4.30;99.90;;;;;;5071138;28;20195;-79
2023/03/07 10:48:45;;;;;;;9.45;6.72;;;4.30;99.90;;;;;;5070749;28;20226;-79
2023/03/07 10:51:27;;;;;;;12.30;6.85;;;4.70;99.90;;;;;;5067537;28;20260;-79
2023/03/07 10:53:56;;;;;;;10.80;8.05;;;4.20;99.90;;;;;;5065598;28;20199;-80
2023/03/07 10:56:23;;;;;;;10.48;8.00;;;4.20;99.90;;;;;;5063853;28;20734;-81
2023/03/07 10:59:00;;;;;;;9.15;7.07;;;4.20;99.90;;;;;;5063498;28;20221;-81
2023/03/07 11:01:28;;;;;;;12.70;7.70;;;4.10;99.90;;;;;;5062671;28;20349;-80
2023/03/07 11:03:59;;;;;;;10.15;8.95;;;4.10;99.90;;;;;;5062524;28;20209;-81
2023/03/07 11:06:33;;;;;;;10.93;7.40;;;4.00;99.90;;;;;;5062406;28;20307;-81
2023/03/07 11:09:14;;;;;;;12.43;8.30;;;4.10;99.90;;;;;;5062337;28;20185;-81
2023/03/07 11:11:48;;;;;;;6.35;5.15;;;4.10;99.90;;;;;;5062526;28;20261;-81
2023/03/07 11:14:15;;;;;;;7.75;5.97;;;3.90;99.90;;;;;;5062469;28;20650;-81
2023/03/07 11:16:49;;;;;;;6.72;5.75;;;4.10;99.90;;;;;;5062237;28;20210;-80
2023/03/07 11:19:37;;;;;;;7.32;5.15;;;4.10;99.90;;;;;;5061475;28;20232;-81
2023/03/07 11:22:16;;;;;;;6.15;3.85;;;4.10;99.90;;;;;;5061524;28;20224;-81
2023/03/07 11:24:50;;;;;;;12.57;4.40;;;4.00;1.00;;;;;;5061302;28;20187;-81
2023/03/07 11:27:22;;;;;;;4.32;2.63;;;4.10;1.00;;;;;;5061633;28;20233;-81
2023/03/07 11:30:06;;;;;;;5.70;3.13;;;3.90;1.00;;;;;;5061780;28;20286;-81
2023/03/07 11:32:37;;;;;;;5.15;3.60;;;4.00;1.00;;;;;;5062461;28;20321;-81
2023/03/07 11:35:06;;;;;;;7.15;4.35;;;4.00;1.00;;;;;;5062014;28;20202;-80
2023/03/07 11:37:37;;;;;;;4.43;3.40;;;4.10;1.00;;;;;;5062116;28;20211;-81
2023/03/07 11:40:21;;;;;;;6.60;3.35;;;3.90;1.00;;;;;;5062612;28;20207;-82
2023/03/07 11:42:59;;;;;;;3.47;3.15;;;3.90;1.00;;;;;;5067518;28;20231;-81
2023/03/07 11:45:33;;;;;;;6.13;3.80;;;3.90;1.00;;;;;;5064026;28;20207;-80
2023/03/07 11:48:09;;;;;;;2.83;2.63;;;3.90;1.00;;;;;;5064857;28;20184;-81
2023/03/07 11:50:36;;;;;;;4.75;2.88;;;3.90;1.00;;;;;;5061433;28;20188;-81
2023/03/07 11:53:36;;;;;;;3.75;3.35;;;3.90;1.00;;;;;;5061803;28;20311;-81
2023/03/07 11:56:24;;;;;;;4.85;3.88;;;3.80;1.00;;;;;;5062040;28;20192;-82
2023/03/07 11:59:16;;;;;;;3.88;2.70;;;3.80;1.00;;;;;;5061370;28;20222;-81
2023/03/07 12:01:51;;;;;;;4.38;3.63;;;3.80;1.00;;;;;;5058583;28;20604;-80
2023/03/07 12:04:55;;;;;;;4.97;3.25;;;4.00;1.00;;;;;;5062382;28;20198;-81
2023/03/07 12:07:45;;;;;;;5.85;3.00;;;4.10;1.00;;;;;;5065009;28;20202;-80
2023/03/07 12:10:24;;;;;;;3.42;2.78;;;4.20;1.00;;;;;;5067725;28;20535;-81
2023/03/07 12:13:04;;;;;;;4.90;3.80;;;4.10;99.90;;;;;;5067416;28;20648;-81
2023/03/07 12:15:38;;;;;;;6.07;2.80;;;4.20;1.00;;;;;;5070670;28;20202;-81
2023/03/07 12:18:19;;;;;;;4.63;2.97;;;4.20;1.00;;;;;;5064528;28;20599;-81
2023/03/07 12:20:58;;;;;;;3.95;3.63;;;4.40;99.90;;;;;;5062143;28;20620;-81
2023/03/07 12:23:32;;;;;;;3.78;3.47;;;3.60;1.00;;;;;;5067571;28;20280;-81
2023/03/07 12:26:06;;;;;;;3.22;2.92;;;4.00;1.00;;;;;;5066477;28;20271;-81
2023/03/07 12:28:43;;;;;;;3.50;2.88;;;3.70;1.00;;;;;;5064188;28;20695;-81
2023/03/07 12:31:15;;;;;;;3.38;2.90;;;4.00;1.00;;;;;;5062641;28;20241;-81
2023/03/07 12:33:54;;;;;;;3.85;2.90;;;3.80;1.00;;;;;;5062441;28;20189;-81
2023/03/07 12:36:27;;;;;;;3.65;3.15;;;3.80;1.00;;;;;;5061787;28;20291;-81
2023/03/07 12:38:59;;;;;;;2.67;2.03;;;3.70;1.00;;;;;;5078487;28;20192;-80
2023/03/07 12:41:39;;;;;;;3.08;2.10;;;3.70;1.00;;;;;;5069635;28;20219;-81
2023/03/07 12:44:15;;;;;;;6.40;2.28;;;3.60;1.00;;;;;;5061822;28;20188;-81
2023/03/07 12:46:49;;;;;;;4.65;2.60;;;3.80;1.00;;;;;;5061315;28;20286;-81
2023/03/07 12:49:23;;;;;;;7.07;2.65;;;3.90;47.10;;;;;;5062594;28;20184;-82
2023/03/07 12:51:55;;;;;;;3.50;2.72;;;3.90;1.00;;;;;;5067237;28;20231;-80
2023/03/07 12:54:28;;;;;;;4.18;2.70;;;3.40;99.90;;;;;;5075134;28;20219;-82
2023/03/07 12:56:59;;;;;;;2.55;2.15;;;3.50;5.50;;;;;;5074746;28;20183;-81
2023/03/07 12:59:27;;;;;;;8.60;2.67;;;3.20;99.90;;;;;;5067206;28;20274;-80
2023/03/07 13:02:00;;;;;;;4.18;2.50;;;3.10;99.90;;;;;;5069084;28;20246;-81
2023/03/07 13:04:31;;;;;;;2.10;1.80;;;2.90;99.90;;;;;;5072260;28;20222;-81